createdAt,value
2023-01-30T00:03:05.667Z,6.13
2023-01-30T00:07:59.327Z,5.43
2023-01-30T00:12:52.644Z,6.18
2023-01-30T00:17:46.096Z,5.40
2023-01-30T00:22:46.434Z,5.60
2023-01-30T00:27:45.664Z,5.40
2023-01-30T00:32:39.285Z,4.68
2023-01-30T00:37:32.995Z,5.38
2023-01-30T00:42:44.152Z,5.03
2023-01-30T00:47:38.282Z,5.55
2023-01-30T00:52:33.059Z,5.20
2023-01-30T00:57:26.231Z,4.88
2023-01-30T01:02:18.518Z,5.10
2023-01-30T01:07:15.957Z,4.88
2023-01-30T01:12:09.856Z,4.78
2023-01-30T01:17:03.276Z,4.85
2023-01-30T01:21:56.672Z,4.35
2023-01-30T01:26:49.637Z,4.10
2023-01-30T01:31:43.814Z,4.72
2023-01-30T01:36:54.058Z,4.45
2023-01-30T01:41:48.416Z,4.32
2023-01-30T01:46:45.881Z,3.75
2023-01-30T01:51:45.263Z,4.00
2023-01-30T01:56:41.513Z,3.97
2023-01-30T02:01:35.575Z,3.67
2023-01-30T02:06:29.216Z,3.58
2023-01-30T02:11:57.350Z,4.28
2023-01-30T02:16:50.683Z,3.50
2023-01-30T02:22:14.612Z,3.60
2023-01-30T02:27:20.654Z,3.50
2023-01-30T02:32:22.452Z,3.17
2023-01-30T02:37:39.456Z,3.85
2023-01-30T02:42:57.040Z,3.08
2023-01-30T02:48:01.636Z,3.63
2023-01-30T02:52:55.075Z,3.40
2023-01-30T02:57:48.780Z,3.58
2023-01-30T03:03:10.793Z,3.55
2023-01-30T03:08:17.661Z,3.35
2023-01-30T03:13:48.340Z,3.33
2023-01-30T03:18:43.856Z,2.83
2023-01-30T03:23:36.742Z,3.05
2023-01-30T03:28:30.401Z,3.13
2023-01-30T03:33:23.439Z,2.90
2023-01-30T03:38:16.424Z,2.67
2023-01-30T03:43:09.885Z,3.53
2023-01-30T03:48:03.308Z,2.75
2023-01-30T03:52:56.281Z,2.92
2023-01-30T03:57:49.040Z,3.08
2023-01-30T04:02:44.075Z,2.20
2023-01-30T04:07:39.998Z,2.65
2023-01-30T04:12:35.334Z,2.45
2023-01-30T04:17:29.502Z,2.35
2023-01-30T04:22:42.975Z,2.50
2023-01-30T04:27:50.098Z,2.47
2023-01-30T04:32:50.451Z,2.30
2023-01-30T04:37:43.632Z,2.53
2023-01-30T04:42:40.247Z,1.98
2023-01-30T04:47:59.090Z,2.20
2023-01-30T04:52:52.673Z,2.55
2023-01-30T04:57:46.994Z,2.40
2023-01-30T05:02:39.593Z,2.45
2023-01-30T05:07:36.381Z,2.15
2023-01-30T05:12:31.399Z,2.05
2023-01-30T05:17:24.691Z,2.47
2023-01-30T05:22:18.045Z,2.28
2023-01-30T05:27:10.961Z,2.00
2023-01-30T05:32:04.748Z,2.42
2023-01-30T05:36:56.827Z,2.22
2023-01-30T05:41:50.592Z,2.20
2023-01-30T05:46:44.292Z,1.90
2023-01-30T05:51:37.012Z,2.00
2023-01-30T05:56:32.295Z,2.40
2023-01-30T06:01:26.646Z,2.03
2023-01-30T06:06:19.245Z,1.85
2023-01-30T06:11:33.373Z,2.10
2023-01-30T06:16:27.150Z,1.90
2023-01-30T06:21:20.661Z,2.10
2023-01-30T06:26:13.535Z,2.20
2023-01-30T06:31:08.397Z,2.00
2023-01-30T06:36:01.582Z,2.28
2023-01-30T06:40:55.099Z,1.80
2023-01-30T06:45:48.751Z,2.15
2023-01-30T06:50:42.689Z,2.35
2023-01-30T06:55:36.914Z,3.10
2023-01-30T07:00:31.160Z,3.25
2023-01-30T07:05:23.311Z,3.28
2023-01-30T07:10:18.199Z,3.65
2023-01-30T07:15:10.291Z,3.17
2023-01-30T07:20:03.094Z,3.47
2023-01-30T07:24:55.831Z,2.53
2023-01-30T07:29:48.003Z,2.90
2023-01-30T07:34:42.648Z,2.88
2023-01-30T07:39:36.261Z,3.03
2023-01-30T07:44:30.389Z,2.20
2023-01-30T07:49:24.089Z,2.70
2023-01-30T07:54:17.702Z,2.75
2023-01-30T07:59:11.949Z,2.45
2023-01-30T08:04:05.061Z,2.72
2023-01-30T08:08:58.209Z,2.45
2023-01-30T08:13:50.738Z,2.92
2023-01-30T08:18:43.009Z,2.47
2023-01-30T08:23:36.503Z,2.83
2023-01-30T08:28:30.846Z,2.92
2023-01-30T08:33:24.918Z,2.50
2023-01-30T08:38:18.161Z,2.58
2023-01-30T08:43:11.573Z,2.35
2023-01-30T08:48:05.879Z,1.95
2023-01-30T08:52:58.985Z,2.80
2023-01-30T08:57:52.728Z,2.75
2023-01-30T09:02:48.484Z,2.80
2023-01-30T09:07:41.345Z,3.55
2023-01-30T09:12:33.503Z,2.88
2023-01-30T09:17:26.913Z,2.70
2023-01-30T09:22:20.047Z,3.03
2023-01-30T09:27:13.152Z,2.40
2023-01-30T09:32:06.434Z,3.05
2023-01-30T09:37:04.991Z,2.63
2023-01-30T09:42:24.534Z,2.70
2023-01-30T09:47:36.683Z,2.70
2023-01-30T09:52:38.147Z,2.47
2023-01-30T09:57:30.992Z,2.97
2023-01-30T10:02:38.913Z,2.40
2023-01-30T10:07:48.600Z,2.70
2023-01-30T10:12:41.100Z,2.60
2023-01-30T10:17:57.050Z,2.67
2023-01-30T10:23:16.411Z,3.35
2023-01-30T10:28:39.456Z,2.70
2023-01-30T10:33:45.853Z,2.50
2023-01-30T10:38:52.688Z,2.88
2023-01-30T10:43:53.449Z,2.60
2023-01-30T10:48:52.187Z,2.55
2023-01-30T10:54:09.139Z,2.75
2023-01-30T10:59:22.416Z,2.63
2023-01-30T11:04:48.000Z,3.10
2023-01-30T11:09:44.145Z,2.97
2023-01-30T11:14:54.702Z,3.03
2023-01-30T11:20:15.769Z,3.00
2023-01-30T11:25:17.881Z,3.40
2023-01-30T11:30:20.419Z,2.97
2023-01-30T11:35:25.746Z,2.80
2023-01-30T11:40:18.292Z,3.28
2023-01-30T11:45:17.627Z,3.50
2023-01-30T11:50:24.526Z,3.55
2023-01-30T11:55:22.516Z,3.10
2023-01-30T12:00:21.211Z,3.08
2023-01-30T12:05:35.368Z,2.85
2023-01-30T12:10:32.249Z,3.08
2023-01-30T12:15:26.740Z,3.20
2023-01-30T12:20:47.794Z,3.13
2023-01-30T12:25:49.085Z,2.67
2023-01-30T12:30:56.732Z,3.20
2023-01-30T12:36:17.611Z,2.53
2023-01-30T12:41:41.276Z,2.85
2023-01-30T12:46:52.399Z,2.90
2023-01-30T12:52:08.985Z,2.80
2023-01-30T12:57:18.946Z,2.95
2023-01-30T13:02:30.933Z,2.72
2023-01-30T13:07:45.160Z,2.83
2023-01-30T13:12:58.836Z,2.95
2023-01-30T13:18:20.320Z,2.97
2023-01-30T13:23:19.441Z,3.30
2023-01-30T13:28:25.885Z,5.40
2023-01-30T13:33:47.677Z,5.88
2023-01-30T13:38:49.621Z,8.52
2023-01-30T13:44:04.755Z,8.32
2023-01-30T13:49:40.130Z,9.00
2023-01-30T13:54:41.994Z,8.70
2023-01-30T14:00:05.957Z,9.00
2023-01-30T14:05:48.516Z,9.38
2023-01-30T14:11:01.942Z,9.93
2023-01-30T14:15:59.273Z,9.48
2023-01-30T14:21:11.722Z,10.00
2023-01-30T14:26:05.122Z,9.75
2023-01-30T14:30:59.663Z,9.38
2023-01-30T14:36:00.511Z,10.02
2023-01-30T14:40:59.513Z,9.63
2023-01-30T14:45:53.488Z,8.25
2023-01-30T14:50:46.721Z,8.55
2023-01-30T14:55:40.372Z,7.50
2023-01-30T15:00:38.052Z,6.70
2023-01-30T15:05:39.840Z,6.75
2023-01-30T15:11:11.095Z,6.25
2023-01-30T15:16:22.202Z,6.00
2023-01-30T15:21:40.925Z,6.15
2023-01-30T15:26:36.965Z,5.72
2023-01-30T15:31:29.498Z,5.28
2023-01-30T15:36:39.300Z,4.97
2023-01-30T15:41:42.554Z,5.07
2023-01-30T15:46:50.460Z,5.32
2023-01-30T15:51:43.489Z,5.25
2023-01-30T15:56:37.020Z,4.93
2023-01-30T16:01:30.731Z,5.53
2023-01-30T16:06:29.247Z,5.20
2023-01-30T16:11:39.457Z,4.78
2023-01-30T16:16:35.451Z,5.53
2023-01-30T16:21:40.626Z,4.78
2023-01-30T16:26:35.877Z,4.63
2023-01-30T16:31:38.029Z,5.00
2023-01-30T16:36:33.312Z,5.40
2023-01-30T16:41:28.134Z,4.93
2023-01-30T16:46:47.876Z,5.75
2023-01-30T16:51:40.573Z,4.75
2023-01-30T16:56:35.362Z,5.43
2023-01-30T17:01:55.767Z,4.38
2023-01-30T17:06:56.068Z,5.13
2023-01-30T17:11:56.497Z,5.22
2023-01-30T17:17:10.058Z,5.45
2023-01-30T17:22:08.613Z,5.63
2023-01-30T17:27:04.490Z,5.13
2023-01-30T17:31:58.560Z,5.63
2023-01-30T17:36:53.182Z,5.93
2023-01-30T17:41:46.167Z,6.18
2023-01-30T17:46:45.469Z,5.75
2023-01-30T17:51:40.629Z,6.10
2023-01-30T17:56:38.931Z,6.07
2023-01-30T18:01:32.341Z,6.43
2023-01-30T18:06:28.017Z,6.38
2023-01-30T18:11:22.618Z,7.43
2023-01-30T18:16:24.282Z,9.13
2023-01-30T18:21:18.222Z,26.15
2023-01-30T18:26:13.151Z,18.42
2023-01-30T18:31:06.053Z,21.40
2023-01-30T18:35:57.788Z,19.27
2023-01-30T18:40:50.431Z,17.60
2023-01-30T18:45:43.019Z,17.52
2023-01-30T18:50:35.988Z,17.45
2023-01-30T18:55:28.790Z,15.57
2023-01-30T19:00:23.969Z,14.27
2023-01-30T19:05:17.787Z,14.80
2023-01-30T19:10:18.193Z,14.88
2023-01-30T19:15:11.829Z,13.30
2023-01-30T19:20:11.620Z,13.98
2023-01-30T19:25:05.625Z,13.95
2023-01-30T19:29:58.766Z,12.43
2023-01-30T19:34:52.177Z,12.88
2023-01-30T19:39:45.352Z,12.68
2023-01-30T19:44:41.381Z,20.52
2023-01-30T19:49:36.584Z,15.68
2023-01-30T19:54:29.780Z,25.05
2023-01-30T19:59:24.018Z,19.52
2023-01-30T20:04:17.941Z,16.85
2023-01-30T20:09:12.186Z,18.00
2023-01-30T20:14:07.132Z,17.45
2023-01-30T20:19:01.908Z,19.45
2023-01-30T20:23:54.504Z,16.88
2023-01-30T20:28:47.365Z,15.85
2023-01-30T20:33:41.242Z,15.30
2023-01-30T20:38:36.129Z,14.23
2023-01-30T20:43:34.274Z,12.75
2023-01-30T20:48:26.669Z,12.65
2023-01-30T20:53:19.265Z,10.90
2023-01-30T20:58:14.692Z,10.73
2023-01-30T21:03:08.544Z,10.00
2023-01-30T21:08:01.216Z,10.63
2023-01-30T21:12:53.837Z,10.18
2023-01-30T21:17:47.635Z,10.10
2023-01-30T21:22:41.139Z,9.27
2023-01-30T21:27:34.620Z,9.40
2023-01-30T21:32:27.344Z,9.82
2023-01-30T21:37:39.021Z,9.95
2023-01-30T21:42:50.385Z,8.60
2023-01-30T21:47:44.076Z,8.82
2023-01-30T21:52:37.929Z,8.93
2023-01-30T21:57:31.553Z,8.98
2023-01-30T22:02:24.243Z,8.63
2023-01-30T22:07:18.461Z,7.82
2023-01-30T22:12:11.635Z,8.75
2023-01-30T22:17:04.927Z,7.88
2023-01-30T22:21:59.812Z,8.23
2023-01-30T22:26:52.777Z,7.63
2023-01-30T22:31:45.947Z,7.78
2023-01-30T22:36:38.392Z,7.50
2023-01-30T22:41:38.656Z,7.45
2023-01-30T22:46:34.227Z,7.90
2023-01-30T22:51:29.683Z,8.10
2023-01-30T22:56:25.179Z,7.88
2023-01-30T23:01:35.942Z,7.72
2023-01-30T23:06:30.802Z,7.43
2023-01-30T23:11:29.244Z,7.57
2023-01-30T23:16:25.375Z,6.68
2023-01-30T23:21:17.929Z,7.10
2023-01-30T23:26:11.412Z,6.57
2023-01-30T23:31:08.764Z,6.90
2023-01-30T23:36:04.510Z,6.82
2023-01-30T23:41:08.376Z,6.65
2023-01-30T23:46:20.694Z,6.57
2023-01-30T23:51:16.796Z,6.50
2023-01-30T23:56:09.436Z,6.30
